Terminal Aerodrome Forecast
Issued by NWS

Home | Current Version | Previous Version | Text Only | Print | Product List | Glossary On
Versions: 1 2 3 4 5 6 7 8 9 10 11 12 13 14 15
000
FTUS42 TJSJ 201100
TAFISX
TAF
TISX 201127Z 2012/2112 05006KT P6SM VCSH SCT020 SCT040
     FM201300 09012KT P6SM VCSH SCT025 SCT050
     FM202300 06006KT P6SM SCT025=

USA.gov is the U.S. government's official web portal to all federal, state and local government web resources and services.